• Join FlightAware (Why Join?)
  • Login
  • US Flag 
09:51AM EST


 

Airport Tracker/Info


-or-


 

Live Flight TrackerFlight Track Log ✈ UAL3773 ✈ 15-Apr-2013 ✈ KIAD - KMCI

Flight Track Log - Related Links

Times and Time Zones

All times are in EDT time to prevent confusion due to time zone crossing. See the UAL3773 flight status page for this flight to view local times or setup timezone preferences in your user account.

Time Position Orientation Groundspeed Altitude Reporting Facility
EDT Latitude Longitude Course Direction KTS MPH feet Rate Location/Type
03:46PM 38.8833 -77.4833 287° West 223 257 3,400  Level Potomac TRACON
03:48PM 38.7961 -77.6292 233° Southwest 251 289 9,700 2,460 Climbing Washington Center
03:49PM 38.8067 -77.7361 277° West 266 306 11,400 1,980 Climbing Washington Center
03:50PM 38.8192 -77.8564 278° West 305 351 13,700 2,400 Climbing Washington Center
03:51PM 38.8317 -78.1264 287° West  Level FlightAware Approximate
03:51PM 38.8314 -77.9742 278° West 323 372 16,400  Level Washington Center
03:52PM 38.8436 -78.0969 277° West 345 397 17,900 1,980 Climbing Washington Center
03:53PM 38.8511 -78.2253 274° West 357 411 20,300 1,920 Climbing Washington Center
03:54PM 38.8506 -78.3531 270° West 357 411 21,800 1,500 Climbing Washington Center
03:55PM 38.8494 -78.4864 269° West 368 423 23,300 1,560 Climbing Washington Center
03:56PM 38.8481 -78.6250 269° West 378 435 25,000 1,560 Climbing Washington Center
03:57PM 38.8467 -78.7608 269° West 383 441 26,500 960 Climbing Washington Center
03:58PM 38.8428 -78.8992 268° West 383 441 27,000 240 Climbing Washington Center
03:59PM 38.8408 -79.0458 269° West 393 452 27,000 180 Level Washington Center
04:00PM 38.8406 -79.1950 270° West 410 472 27,400 960 Climbing Washington Center
04:01PM 38.8364 -79.3361 268° West 410 472 29,000 1,080 Climbing Washington Center
04:02PM 38.8339 -79.4800 269° West 410 472 29,600 1,140 Climbing Washington Center
04:03PM 38.8347 -79.6453 270° West 412 474 31,300 1,500 Climbing Washington Center
04:05PM 38.8258 -79.8744 267° West 378 435 34,000 1,320 Climbing Indianapolis Center
04:06PM 38.8222 -80.0081 268° West 375 432 35,200 1,020 Climbing Indianapolis Center
04:07PM 38.8194 -80.1397 268° West 370 426 36,200 1,020 Climbing Indianapolis Center
04:08PM 38.8156 -80.2694 268° West 365 420 37,300 840 Climbing Indianapolis Center
04:09PM 38.8108 -80.4228 268° West 359 413 38,000 300 Climbing Indianapolis Center
04:10PM 38.8078 -80.5528 268° West 363 418 38,000  Level Indianapolis Center
04:11PM 38.8036 -80.6886 268° West 380 437 38,000  Level Indianapolis Center
04:12PM 38.7994 -80.8278 268° West 389 448 38,000  Level Indianapolis Center
04:13PM 38.7947 -80.9678 268° West 393 452 38,000  Level Indianapolis Center
04:14PM 38.7897 -81.1092 267° West 397 457 38,000  Level Indianapolis Center
04:15PM 38.7842 -81.2783 268° West 397 457 38,000  Level Indianapolis Center
04:16PM 38.7792 -81.4125 267° West 397 457 38,000  Level Indianapolis Center
04:17PM 38.7744 -81.5564 268° West 402 463 38,000  Level Indianapolis Center
04:18PM 38.7689 -81.6947 267° West 398 458 38,000  Level Indianapolis Center
04:19PM 38.7631 -81.8344 267° West 398 458 38,000  Level Indianapolis Center
04:20PM 38.7561 -82.0022 267° West 396 456 38,000  Level Indianapolis Center
04:21PM 38.7503 -82.1419 267° West 393 452 38,000  Level Indianapolis Center
04:22PM 38.7456 -82.2828 268° West 394 453 38,000  Level Indianapolis Center
04:23PM 38.7392 -82.4211 267° West 392 451 38,000  Level Indianapolis Center
04:24PM 38.7344 -82.5608 268° West 392 451 38,000  Level Indianapolis Center
04:25PM 38.7278 -82.6994 267° West 391 450 38,000  Level Indianapolis Center
04:26PM 38.7211 -82.8675 267° West 393 452 38,000  Level Indianapolis Center
04:28PM 38.7144 -83.0064 267° West 391 450 38,000  Level Indianapolis Center
04:29PM 38.7083 -83.1472 267° West 394 453 38,000  Level Indianapolis Center
04:30PM 38.7014 -83.2858 266° West 390 449 38,000  Level Indianapolis Center
04:31PM 38.6953 -83.4267 267° West 390 449 38,000  Level Indianapolis Center
04:32PM 38.6878 -83.5661 266° West 390 449 38,000  Level Indianapolis Center
04:33PM 38.6814 -83.7058 267° West 390 449 38,000  Level Indianapolis Center
04:34PM 38.6728 -83.8686 266° West 390 449 38,000  Level Indianapolis Center
04:35PM 38.6653 -84.0081 266° West 390 449 38,000  Level Indianapolis Center
04:36PM 38.6581 -84.1478 266° West 389 448 38,000  Level Indianapolis Center
04:37PM 38.6506 -84.2892 266° West 393 452 38,000  Level Indianapolis Center
04:38PM 38.6572 -84.4294 274° West 393 452 38,000  Level Indianapolis Center
04:39PM 38.6647 -84.5736 274° West 393 452 38,000  Level Indianapolis Center
04:40PM 38.6719 -84.7144 274° West 396 456 38,000  Level Indianapolis Center
04:41PM 38.6811 -84.8778 274° West 395 455 38,000  Level Indianapolis Center
04:42PM 38.6872 -84.9964 274° West 396 456 38,000  Level Indianapolis Center
04:43PM 38.6956 -85.1353 274° West 393 452 38,000  Level Indianapolis Center
04:44PM 38.7044 -85.3017 274° West 390 449 38,000  Level Indianapolis Center
04:45PM 38.7122 -85.4417 274° West 393 452 38,000  Level Indianapolis Center
04:46PM 38.7189 -85.5789 274° West 388 447 38,000  Level Indianapolis Center
04:47PM 38.7247 -85.7181 273° West 390 449 38,000  Level Indianapolis Center
04:48PM 38.7314 -85.8569 274° West 390 449 38,000  Level Indianapolis Center
04:49PM 38.7389 -85.9964 274° West 391 450 38,000  Level Indianapolis Center
04:50PM 38.7467 -86.1353 274° West 392 451 38,000  Level Indianapolis Center
04:51PM 38.7536 -86.3006 273° West 389 448 38,000  Level Indianapolis Center
04:52PM 38.7597 -86.4394 273° West 390 449 38,000  Level Indianapolis Center
04:53PM 38.7650 -86.5775 273° West 391 450 38,000  Level Indianapolis Center
04:54PM 38.7711 -86.7156 273° West 390 449 38,000  Level Indianapolis Center
04:55PM 38.7767 -86.8542 273° West 390 449 38,000  Level Indianapolis Center
04:56PM 38.8008 -86.9911 283° West 395 455 38,000  Level Indianapolis Center
04:57PM 38.8297 -87.1533 283° West 392 451 38,000  Level Indianapolis Center
04:58PM 38.8544 -87.2900 283° West 394 453 38,000  Level Indianapolis Center
05:00PM 38.8778 -87.4258 282° West 392 451 38,000  Level Indianapolis Center
05:01PM 38.9014 -87.5614 283° West 391 450 38,000  Level Indianapolis Center
05:02PM 38.9261 -87.6969 283° West 390 449 38,000  Level Indianapolis Center
05:03PM 38.9494 -87.8342 282° West 393 452 38,000  Level Indianapolis Center
05:04PM 38.9731 -87.9725 282° West 395 455 38,000  Level Indianapolis Center
05:05PM 38.9967 -88.1092 283° West 392 451 38,000  Level Indianapolis Center
05:06PM 39.0244 -88.2753 282° West 394 453 38,000  Level Indianapolis Center
05:07PM 39.0419 -88.3869 281° West 394 453 38,000  Level Kansas City Center
05:08PM 39.0661 -88.5242 283° West 393 452 38,000  Level Kansas City Center
05:09PM 39.0894 -88.6658 282° West 396 456 38,000  Level Kansas City Center
05:10PM 39.1117 -88.8050 282° West 398 458 38,000  Level Kansas City Center
05:11PM 39.1406 -88.9717 283° West 401 461 38,000  Level Kansas City Center
05:12PM 39.1622 -89.1139 281° West 403 464 38,000  Level Kansas City Center
05:13PM 39.1861 -89.2547 282° West 403 464 38,000  Level Kansas City Center
05:14PM 39.2081 -89.3947 281° West 401 461 38,000  Level Kansas City Center
05:15PM 39.2294 -89.5344 281° West 401 461 38,000  Level Kansas City Center
05:16PM 39.2519 -89.6744 282° West 402 463 38,000  Level Kansas City Center
05:17PM 39.2778 -89.8411 281° West 399 459 38,000  Level Kansas City Center
05:18PM 39.2997 -89.9789 282° West 396 456 38,000  Level Kansas City Center
05:19PM 39.3208 -90.1181 281° West 397 457 38,000  Level Kansas City Center
05:20PM 39.3422 -90.2575 281° West 398 458 38,000  Level Kansas City Center
05:21PM 39.3631 -90.3986 281° West 401 461 38,000  Level Kansas City Center
05:22PM 39.3875 -90.5672 281° West 401 461 38,000  Level Kansas City Center
05:23PM 39.4083 -90.7053 281° West 397 457 38,000  Level Kansas City Center
05:24PM 39.4281 -90.8422 281° West 393 452 38,000  Level Kansas City Center
05:25PM 39.4481 -90.9797 281° West 392 451 38,000  Level Kansas City Center
05:26PM 39.4681 -91.1144 281° West 386 444 38,000  Level Kansas City Center
05:27PM 39.4861 -91.2503 280° West 385 443 38,000  Level Kansas City Center
05:28PM 39.5061 -91.3906 281° West 383 441 38,000  Level Kansas City Center
05:29PM 39.5297 -91.5508 281° West 381 438 38,000  Level Kansas City Center
05:30PM 39.5481 -91.6856 280° West 381 438 38,000  Level Kansas City Center
05:31PM 39.5653 -91.8208 279° West 382 440 38,000  Level Kansas City Center
05:32PM 39.5847 -91.9542 281° West 380 437 38,000  Level Kansas City Center
05:33PM 39.6025 -92.0861 280° West 377 434 38,000  Level Kansas City Center
05:34PM 39.6200 -92.2208 280° West 378 435 38,000 -960 Level Kansas City Center
05:36PM 39.6419 -92.3825 280° West 380 437 36,100 -1,920 Descending Kansas City Center
05:37PM 39.6547 -92.5211 277° West 384 442 34,100 -1,980 Descending Kansas City Center
05:38PM 39.6522 -92.6592 269° West 385 443 32,000 -1,980 Descending Kansas City Center
05:39PM 39.6503 -92.7947 269° West 380 437 30,000 -2,040 Descending Kansas City Center
05:40PM 39.6481 -92.9333 269° West 382 440 28,000 -1,980 Descending Kansas City Center
05:41PM 39.6458 -93.0753 269° West 390 449 26,000 -2,160 Descending Kansas City Center
05:42PM 39.6422 -93.2442 268° West 392 451 23,600 -2,160 Descending Kansas City Center
05:43PM 39.6400 -93.3825 269° West 388 447 21,600 -2,040 Descending Kansas City Center
05:44PM 39.6372 -93.5214 269° West 387 445 19,400 -2,160 Descending Kansas City Center
05:45PM 39.6353 -93.6558 269° West 377 434 17,300 -2,100 Descending Kansas City Center
05:46PM 39.6317 -93.8056 268° West 365 420 15,100 -2,040 Descending Kansas City Center
05:47PM 39.6086 -93.9206 255° West 351 404 13,200 -1,500 Descending Kansas City Center
05:48PM 39.5581 -94.0172 236° Southwest 339 390 12,000 -600 Descending Kansas City Center
05:49PM 39.4997 -94.1339 237° Southwest 346 398 12,000  Level Kansas City Center
05:50PM 39.4494 -94.2331 237° Southwest 345 397 12,000  Level Kansas City Center
05:51PM 39.3906 -94.3467 236° Southwest 340 391 12,000 -60 Level Kansas City Center
05:52PM 39.3453 -94.4358 237° Southwest 307 353 11,900 -480 Descending Kansas City Center
05:53PM 39.3042 -94.5172 237° Southwest 236 272 11,000 -1,200 Descending Kansas City Center
05:54PM 39.2725 -94.5794 237° Southwest 218 251 9,500 -1,920 Descending Kansas City Center
05:55PM 39.2158 -94.6097 202° Southwest 207 238 7,100 -2,160 Descending Kansas City Center
05:56PM 39.1686 -94.6472 212° Southwest 211 243 5,000 -2,040 Descending Kansas City Center
05:57PM 39.1456 -94.7106 245° Southwest 229 264 3,100 -1,020 Descending Kansas City Center
05:58PM 39.1808 -94.7614 312° West 178 205 3,000 -360 Descending Kansas City Center
05:59PM 39.2275 -94.7497 11° North 178 205 2,400 -720 Descending Kansas City Center
06:00PM 39.2656 -94.7381 13° North 125 144 1,600 -720 Descending Kansas City Center
06:01PM 39.3008 -94.7272 13° North 123 142 1,000 -600 Descending Kansas City Center